createdAt,value
2019-05-03T00:02:28.296Z,10.90
2019-05-03T00:05:26.959Z,10.90
2019-05-03T00:08:02.750Z,10.90
2019-05-03T00:10:32.015Z,10.90
2019-05-03T00:13:01.912Z,10.90
2019-05-03T00:15:38.424Z,10.90
2019-05-03T00:18:07.588Z,11.00
2019-05-03T00:20:36.679Z,11.00
2019-05-03T00:23:06.432Z,10.90
2019-05-03T00:25:35.658Z,10.90
2019-05-03T00:28:04.964Z,10.90
2019-05-03T00:30:34.224Z,10.90
2019-05-03T00:33:03.498Z,10.90
2019-05-03T00:35:54.732Z,10.90
2019-05-03T00:38:24.022Z,10.90
2019-05-03T00:40:53.333Z,10.90
2019-05-03T00:43:22.597Z,10.80
2019-05-03T00:45:51.884Z,10.80
2019-05-03T00:48:21.934Z,10.80
2019-05-03T00:50:52.834Z,10.70
2019-05-03T00:53:22.377Z,10.70
2019-05-03T00:55:52.442Z,10.60
2019-05-03T00:58:22.449Z,10.60
2019-05-03T01:00:52.660Z,10.60
2019-05-03T01:03:22.344Z,10.50
2019-05-03T01:05:52.883Z,10.50
2019-05-03T01:08:22.452Z,10.50
2019-05-03T01:10:51.792Z,10.50
2019-05-03T01:13:21.928Z,10.40
2019-05-03T01:15:58.469Z,10.40
2019-05-03T01:18:27.696Z,10.30
2019-05-03T01:20:56.840Z,10.30
2019-05-03T01:23:26.057Z,10.30
2019-05-03T01:25:55.342Z,10.30
2019-05-03T01:28:24.463Z,10.30
2019-05-03T01:30:53.639Z,10.30
2019-05-03T01:33:22.962Z,10.20
2019-05-03T01:35:52.176Z,10.20
2019-05-03T01:38:22.643Z,10.20
2019-05-03T01:40:52.259Z,10.20
2019-05-03T01:43:22.196Z,10.20
2019-05-03T01:45:51.950Z,10.20
2019-05-03T01:48:28.727Z,10.20
2019-05-03T01:51:32.732Z,10.20
2019-05-03T01:54:02.007Z,10.20
2019-05-03T01:56:31.636Z,10.20
2019-05-03T01:59:01.855Z,10.20
2019-05-03T02:01:37.835Z,10.20
2019-05-03T02:04:26.878Z,10.30
2019-05-03T02:06:56.031Z,10.30
2019-05-03T02:09:25.215Z,10.30
2019-05-03T02:11:54.463Z,10.30
2019-05-03T02:14:23.685Z,10.30
2019-05-03T02:16:52.901Z,10.20
2019-05-03T02:19:22.701Z,10.20
2019-05-03T02:21:52.395Z,10.30
2019-05-03T02:24:22.086Z,10.30
2019-05-03T02:26:52.941Z,10.30
2019-05-03T02:29:22.208Z,10.30
2019-05-03T02:31:53.469Z,10.30
2019-05-03T02:34:23.960Z,10.20
2019-05-03T02:36:53.918Z,10.20
2019-05-03T02:39:23.819Z,10.20
2019-05-03T02:41:59.719Z,10.10
2019-05-03T02:44:26.603Z,10.10
2019-05-03T02:47:15.757Z,10.00
2019-05-03T02:49:47.367Z,9.90
2019-05-03T02:52:36.736Z,9.90
2019-05-03T02:55:10.139Z,9.80
2019-05-03T02:57:39.422Z,9.80
2019-05-03T03:00:11.149Z,9.80
2019-05-03T03:02:40.941Z,9.70
2019-05-03T03:05:11.273Z,9.70
2019-05-03T03:07:45.951Z,9.80
2019-05-03T03:10:16.378Z,9.70
2019-05-03T03:12:47.311Z,9.70
2019-05-03T03:15:16.636Z,9.70
2019-05-03T03:17:47.196Z,9.70
2019-05-03T03:20:16.423Z,9.70
2019-05-03T03:22:46.789Z,9.70
2019-05-03T03:25:25.592Z,9.70
2019-05-03T03:27:58.464Z,9.70
2019-05-03T03:31:17.677Z,9.70
2019-05-03T03:33:47.512Z,9.70
2019-05-03T03:36:50.301Z,9.70
2019-05-03T03:38:47.494Z,9.70
2019-05-03T03:41:18.450Z,9.70
2019-05-03T03:43:50.838Z,9.70
2019-05-03T03:46:25.168Z,9.70
2019-05-03T03:48:57.336Z,9.70
2019-05-03T03:51:29.542Z,9.70
2019-05-03T03:54:01.955Z,9.70
2019-05-03T03:56:35.603Z,9.70
2019-05-03T03:59:05.900Z,9.70
2019-05-03T04:01:35.066Z,9.70
2019-05-03T04:04:05.584Z,9.70
2019-05-03T04:06:41.234Z,9.70
2019-05-03T04:09:11.397Z,9.60
2019-05-03T04:11:41.240Z,9.70
2019-05-03T04:14:16.162Z,9.60
2019-05-03T04:16:57.137Z,9.70
2019-05-03T04:19:30.230Z,9.60
2019-05-03T04:21:59.555Z,9.60
2019-05-03T04:24:30.930Z,9.60
2019-05-03T04:27:18.743Z,9.60
2019-05-03T04:29:38.609Z,9.60
2019-05-03T04:32:08.741Z,9.60
2019-05-03T04:34:37.992Z,9.60
2019-05-03T04:37:07.303Z,9.60
2019-05-03T04:39:36.512Z,9.60
2019-05-03T04:42:06.673Z,9.60
2019-05-03T04:44:36.630Z,9.50
2019-05-03T04:47:06.943Z,9.50
2019-05-03T04:49:36.583Z,9.50
2019-05-03T04:52:06.130Z,9.50
2019-05-03T04:55:00.637Z,9.50
2019-05-03T04:57:40.009Z,9.50
2019-05-03T05:00:00.647Z,9.50
2019-05-03T05:02:30.083Z,9.50
2019-05-03T05:04:59.590Z,9.40
2019-05-03T05:07:28.785Z,9.40
2019-05-03T05:09:57.998Z,9.40
2019-05-03T05:12:27.190Z,9.40
2019-05-03T05:14:56.709Z,9.50
2019-05-03T05:17:45.958Z,9.50
2019-05-03T05:20:40.924Z,9.50
2019-05-03T05:23:10.499Z,9.50
2019-05-03T05:25:45.034Z,9.50
2019-05-03T05:28:39.804Z,9.50
2019-05-03T05:31:09.477Z,9.60
2019-05-03T05:33:38.696Z,9.60
2019-05-03T05:36:07.944Z,9.60
2019-05-03T05:38:37.130Z,9.60
2019-05-03T05:41:06.369Z,9.60
2019-05-03T05:43:35.793Z,9.70
2019-05-03T05:46:06.074Z,9.70
2019-05-03T05:48:40.530Z,9.70
2019-05-03T05:51:09.775Z,9.70
2019-05-03T05:53:38.978Z,9.70
2019-05-03T05:56:19.810Z,9.70
2019-05-03T05:59:08.101Z,9.70
2019-05-03T06:01:45.578Z,9.80
2019-05-03T06:04:15.408Z,9.80
2019-05-03T06:07:04.622Z,9.90
2019-05-03T06:09:56.806Z,10.10
2019-05-03T06:12:32.452Z,10.40
2019-05-03T06:15:06.286Z,10.80
2019-05-03T06:17:49.506Z,11.10
2019-05-03T06:20:34.972Z,11.40
2019-05-03T06:23:22.196Z,11.80
2019-05-03T06:25:51.307Z,12.20
2019-05-03T06:28:27.649Z,12.50
2019-05-03T06:31:14.766Z,12.60
2019-05-03T06:33:45.045Z,12.70
2019-05-03T06:36:15.271Z,12.90
2019-05-03T06:38:44.808Z,13.00
2019-05-03T06:41:15.090Z,13.00
2019-05-03T06:43:48.384Z,13.20
2019-05-03T06:46:18.149Z,13.30
2019-05-03T06:48:46.142Z,13.50
2019-05-03T06:51:19.867Z,13.60
2019-05-03T06:53:49.604Z,13.70
2019-05-03T06:56:19.260Z,13.80
2019-05-03T06:58:48.036Z,13.90
2019-05-03T07:01:25.145Z,14.00
2019-05-03T07:04:16.430Z,14.10
2019-05-03T07:07:07.564Z,14.10
2019-05-03T07:09:44.571Z,14.10
2019-05-03T07:12:14.852Z,14.00
2019-05-03T07:14:45.012Z,13.90
2019-05-03T07:17:15.104Z,13.80
2019-05-03T07:19:45.915Z,13.80
2019-05-03T07:22:15.294Z,13.70
2019-05-03T07:24:45.507Z,13.70
2019-05-03T07:27:15.888Z,13.60
2019-05-03T07:29:45.640Z,13.50
2019-05-03T07:32:15.586Z,13.50
2019-05-03T07:34:45.312Z,13.40
2019-05-03T07:37:15.371Z,13.40
2019-05-03T07:39:45.278Z,13.40
2019-05-03T07:42:15.667Z,13.40
2019-05-03T07:44:45.144Z,13.40
2019-05-03T07:47:14.834Z,13.40
2019-05-03T07:49:44.747Z,13.40
2019-05-03T07:52:14.739Z,13.30
2019-05-03T07:54:45.114Z,13.20
2019-05-03T07:57:29.229Z,13.20
2019-05-03T07:59:58.430Z,13.20
2019-05-03T08:02:27.776Z,13.10
2019-05-03T08:04:57.025Z,13.10
2019-05-03T08:07:26.315Z,13.00
2019-05-03T08:09:55.681Z,13.00
2019-05-03T08:12:24.985Z,13.10
2019-05-03T08:14:55.189Z,13.10
2019-05-03T08:17:25.507Z,13.10
2019-05-03T08:19:55.497Z,13.00
2019-05-03T08:22:25.527Z,13.00
2019-05-03T08:24:55.657Z,13.00
2019-05-03T08:27:25.359Z,13.00
2019-05-03T08:29:55.789Z,13.00
2019-05-03T08:32:44.510Z,13.00
2019-05-03T08:35:31.953Z,12.90
2019-05-03T08:38:02.006Z,13.00
2019-05-03T08:40:35.247Z,13.00
2019-05-03T08:43:05.194Z,13.00
2019-05-03T08:45:34.988Z,13.10
2019-05-03T08:48:05.507Z,13.10
2019-05-03T08:53:56.799Z,13.30
2019-05-03T08:56:26.027Z,13.30
2019-05-03T08:58:55.524Z,13.40
2019-05-03T09:01:25.256Z,13.70
2019-05-03T09:03:55.795Z,13.90
2019-05-03T09:06:25.807Z,14.20
2019-05-03T09:08:57.232Z,14.40
2019-05-03T09:11:34.029Z,14.60
2019-05-03T09:13:59.643Z,14.80
2019-05-03T09:16:30.285Z,15.00
2019-05-03T09:18:59.533Z,15.20
2019-05-03T09:21:28.684Z,15.30
2019-05-03T09:23:58.081Z,15.30
2019-05-03T09:26:29.510Z,15.40
2019-05-03T09:29:00.873Z,15.40
2019-05-03T09:31:30.111Z,15.40
2019-05-03T09:36:39.651Z,15.50
2019-05-03T09:39:09.028Z,15.50
2019-05-03T09:41:45.108Z,15.50
2019-05-03T09:44:17.708Z,15.50
2019-05-03T09:46:46.832Z,15.50
2019-05-03T09:49:16.881Z,15.50
2019-05-03T09:51:46.145Z,15.50
2019-05-03T09:54:25.511Z,15.50
2019-05-03T09:57:01.409Z,15.40
2019-05-03T09:59:30.615Z,15.40
2019-05-03T10:02:01.476Z,15.40
2019-05-03T10:04:31.754Z,15.40
2019-05-03T10:07:00.932Z,15.40
2019-05-03T10:09:30.074Z,15.50
2019-05-03T10:12:00.407Z,15.50
2019-05-03T10:14:29.544Z,15.40
2019-05-03T10:17:28.503Z,15.40
2019-05-03T10:19:57.745Z,15.40
2019-05-03T10:22:31.423Z,15.40
2019-05-03T10:25:00.393Z,15.30
2019-05-03T10:27:32.357Z,15.30
2019-05-03T10:30:10.559Z,15.20
2019-05-03T10:32:38.557Z,15.20
2019-05-03T10:35:09.616Z,15.20
2019-05-03T10:37:38.800Z,15.10
2019-05-03T10:40:10.044Z,15.10
2019-05-03T10:42:39.257Z,15.10
2019-05-03T10:45:09.841Z,15.10
2019-05-03T10:47:39.132Z,15.10
2019-05-03T10:50:09.706Z,15.10
2019-05-03T10:52:44.622Z,15.10
2019-05-03T10:55:15.945Z,15.00
2019-05-03T10:57:48.032Z,15.00
2019-05-03T11:00:42.590Z,15.00
2019-05-03T11:02:56.770Z,15.00
2019-05-03T11:05:27.393Z,15.00
2019-05-03T11:07:56.631Z,14.90
2019-05-03T11:10:25.867Z,14.90
2019-05-03T11:12:58.112Z,14.90
2019-05-03T11:15:27.302Z,14.90
2019-05-03T11:17:56.443Z,15.00
2019-05-03T11:20:36.197Z,15.00
2019-05-03T11:23:07.812Z,15.10
2019-05-03T11:25:37.827Z,15.00
2019-05-03T11:28:21.782Z,15.10
2019-05-03T11:30:56.468Z,15.20
2019-05-03T11:33:37.576Z,15.20
2019-05-03T11:36:18.198Z,15.10
2019-05-03T11:38:48.618Z,15.10
2019-05-03T11:41:29.521Z,15.10
2019-05-03T11:43:48.862Z,15.10
2019-05-03T11:46:18.053Z,15.10
2019-05-03T11:48:48.446Z,15.10
2019-05-03T11:51:17.593Z,15.10
2019-05-03T11:53:46.812Z,15.10
2019-05-03T11:56:16.003Z,15.10
2019-05-03T11:58:45.677Z,14.90
2019-05-03T12:01:35.902Z,14.90
2019-05-03T12:04:09.411Z,14.90
2019-05-03T12:06:40.885Z,14.80
2019-05-03T12:09:12.692Z,14.70
2019-05-03T12:11:45.522Z,14.60
2019-05-03T12:14:15.504Z,14.60
2019-05-03T12:17:14.270Z,14.50
2019-05-03T12:19:29.776Z,14.50
2019-05-03T12:21:54.281Z,14.50
2019-05-03T12:24:26.428Z,14.50
2019-05-03T12:26:55.866Z,14.50
2019-05-03T12:29:25.540Z,14.60
2019-05-03T12:31:54.903Z,14.60
2019-05-03T12:34:25.629Z,14.60
2019-05-03T12:36:55.215Z,14.70
2019-05-03T12:39:30.042Z,14.70
2019-05-03T12:41:55.414Z,14.70
2019-05-03T12:44:24.800Z,14.80
2019-05-03T12:46:53.968Z,14.80
2019-05-03T12:49:24.921Z,14.90
2019-05-03T12:51:55.697Z,14.90
2019-05-03T12:54:24.862Z,15.00
2019-05-03T12:56:56.073Z,15.10
2019-05-03T12:59:44.792Z,15.00
2019-05-03T13:02:19.056Z,15.00
2019-05-03T13:04:51.882Z,14.90
2019-05-03T13:07:28.451Z,14.90
2019-05-03T13:09:57.651Z,14.80
2019-05-03T13:12:28.620Z,14.80
2019-05-03T13:15:00.014Z,14.70
2019-05-03T13:17:36.123Z,14.70
2019-05-03T13:20:09.151Z,14.60
2019-05-03T13:22:38.290Z,14.50
2019-05-03T13:25:09.091Z,14.40
2019-05-03T13:27:38.417Z,14.30
2019-05-03T13:30:08.829Z,14.30
2019-05-03T13:32:37.977Z,14.30
2019-05-03T13:35:07.836Z,14.20
2019-05-03T13:37:40.410Z,14.20
2019-05-03T13:40:36.018Z,14.20
2019-05-03T13:51:25.407Z,14.10
2019-05-03T13:53:42.053Z,14.10
2019-05-03T13:56:11.242Z,14.10
2019-05-03T13:58:40.511Z,14.10
2019-05-03T14:01:09.673Z,14.10
2019-05-03T14:03:39.350Z,14.10
2019-05-03T14:06:09.456Z,14.20
2019-05-03T14:08:38.824Z,14.20
2019-05-03T14:11:08.036Z,14.20
2019-05-03T14:13:38.501Z,14.20
2019-05-03T14:16:07.858Z,14.30
2019-05-03T14:18:37.083Z,14.30
2019-05-03T14:21:20.563Z,14.30
2019-05-03T14:24:11.342Z,14.30
2019-05-03T14:26:44.758Z,14.30
2019-05-03T14:29:14.943Z,14.30
2019-05-03T14:31:45.406Z,14.30
2019-05-03T14:34:17.503Z,14.20
2019-05-03T14:36:46.983Z,14.20
2019-05-03T14:39:16.188Z,14.10
2019-05-03T14:41:46.864Z,14.10
2019-05-03T14:44:18.392Z,14.00
2019-05-03T14:46:48.302Z,14.00
2019-05-03T14:49:20.452Z,13.90
2019-05-03T14:51:49.720Z,13.90
2019-05-03T14:54:24.916Z,13.80
2019-05-03T14:57:01.092Z,13.80
2019-05-03T14:59:50.957Z,13.70
2019-05-03T15:02:50.937Z,13.60
2019-05-03T15:05:21.934Z,13.60
2019-05-03T15:07:51.035Z,13.50
2019-05-03T15:10:23.262Z,13.50
2019-05-03T15:12:52.456Z,13.50
2019-05-03T15:15:21.648Z,13.40
2019-05-03T15:17:50.756Z,13.40
2019-05-03T15:20:45.186Z,13.40
2019-05-03T15:23:14.719Z,13.40
2019-05-03T15:25:45.229Z,13.40
2019-05-03T15:28:15.418Z,13.40
2019-05-03T15:30:44.598Z,13.50
2019-05-03T15:33:15.152Z,13.50
2019-05-03T15:35:46.582Z,13.50
2019-05-03T15:38:15.266Z,13.60
2019-05-03T15:40:46.374Z,13.50
2019-05-03T15:43:21.459Z,13.60
2019-05-03T15:46:16.123Z,13.60
2019-05-03T15:48:48.590Z,13.50
2019-05-03T15:51:17.716Z,13.50
2019-05-03T15:53:46.894Z,13.50
2019-05-03T15:56:15.980Z,13.50
2019-05-03T15:58:46.930Z,13.50
2019-05-03T16:01:16.170Z,13.40
2019-05-03T16:03:45.297Z,13.30
2019-05-03T16:06:15.562Z,13.30
2019-05-03T16:08:44.991Z,13.20
2019-05-03T16:11:14.866Z,13.20
2019-05-03T16:13:44.853Z,13.20
2019-05-03T16:16:15.235Z,13.20
2019-05-03T16:18:44.986Z,13.10
2019-05-03T16:21:14.831Z,13.20
2019-05-03T16:23:46.722Z,13.20
2019-05-03T16:26:15.092Z,13.10
2019-05-03T16:28:49.796Z,13.20
2019-05-03T16:31:21.179Z,13.20
2019-05-03T16:33:50.356Z,13.10
2019-05-03T16:36:19.446Z,13.10
2019-05-03T16:38:48.628Z,13.10
2019-05-03T16:41:18.614Z,13.00
2019-05-03T16:43:47.859Z,13.00
2019-05-03T16:46:17.026Z,12.90
2019-05-03T16:48:46.157Z,12.90
2019-05-03T16:51:17.293Z,12.90
2019-05-03T16:53:46.230Z,12.90
2019-05-03T16:56:17.177Z,12.80
2019-05-03T16:58:46.303Z,12.80
2019-05-03T17:01:17.795Z,12.80
2019-05-03T17:03:51.247Z,12.70
2019-05-03T17:06:42.207Z,12.60
2019-05-03T17:09:19.962Z,12.60
2019-05-03T17:12:11.214Z,12.50
2019-05-03T17:14:40.420Z,12.40
2019-05-03T17:17:25.122Z,12.40
2019-05-03T17:19:55.140Z,12.30
2019-05-03T17:22:25.221Z,12.20
2019-05-03T17:24:55.154Z,12.20
2019-05-03T17:27:29.681Z,12.10
2019-05-03T17:29:59.101Z,12.10
2019-05-03T17:32:31.256Z,12.10
2019-05-03T17:35:31.085Z,12.00
2019-05-03T17:38:00.339Z,11.90
2019-05-03T17:40:41.875Z,11.90
2019-05-03T17:43:29.023Z,11.80
2019-05-03T17:45:59.547Z,11.70
2019-05-03T17:48:29.769Z,11.60
2019-05-03T17:50:59.102Z,11.50
2019-05-03T17:53:47.363Z,11.50
2019-05-03T17:56:35.080Z,11.40
2019-05-03T17:59:12.545Z,11.30
2019-05-03T18:02:04.867Z,11.20
2019-05-03T18:04:59.309Z,11.20
2019-05-03T18:07:42.631Z,11.20
2019-05-03T18:10:12.093Z,11.10
2019-05-03T18:12:41.321Z,11.10
2019-05-03T18:15:12.275Z,11.00
2019-05-03T18:17:44.490Z,11.00
2019-05-03T18:20:15.060Z,10.90
2019-05-03T18:22:44.848Z,10.90
2019-05-03T18:25:14.283Z,10.90
2019-05-03T18:27:44.607Z,10.80
2019-05-03T18:30:14.702Z,10.80
2019-05-03T18:32:46.170Z,10.70
2019-05-03T18:35:15.656Z,10.70
2019-05-03T18:37:47.303Z,10.60
2019-05-03T18:40:16.475Z,10.60
2019-05-03T18:42:51.026Z,10.60
2019-05-03T18:45:25.732Z,10.50
2019-05-03T18:47:54.895Z,10.50
2019-05-03T18:50:23.997Z,10.50
2019-05-03T18:52:53.142Z,10.40
2019-05-03T18:55:22.268Z,10.40
2019-05-03T18:57:51.377Z,10.40
2019-05-03T19:00:21.714Z,10.30
2019-05-03T19:02:51.057Z,10.30
2019-05-03T19:05:22.022Z,10.30
2019-05-03T19:08:15.203Z,10.20
2019-05-03T19:11:06.245Z,10.20
2019-05-03T19:13:41.504Z,10.10
2019-05-03T19:16:25.506Z,10.10
2019-05-03T19:18:55.059Z,10.10
2019-05-03T19:21:24.696Z,10.00
2019-05-03T19:23:53.902Z,10.00
2019-05-03T19:26:24.814Z,10.00
2019-05-03T19:28:54.972Z,10.00
2019-05-03T19:31:25.323Z,9.90
2019-05-03T19:33:56.161Z,10.00
2019-05-03T19:36:25.288Z,10.00
2019-05-03T19:38:54.689Z,10.00
2019-05-03T19:41:25.198Z,9.90
2019-05-03T19:43:55.043Z,9.90
2019-05-03T19:46:24.945Z,9.90
2019-05-03T19:48:54.709Z,9.90
2019-05-03T19:54:17.144Z,9.90
2019-05-03T19:56:46.925Z,9.80
2019-05-03T19:59:35.464Z,9.80
2019-05-03T20:02:29.711Z,9.80
2019-05-03T20:05:17.931Z,9.80
2019-05-03T20:08:09.811Z,9.70
2019-05-03T20:10:38.974Z,9.70
2019-05-03T20:13:08.084Z,9.70
2019-05-03T20:15:37.299Z,9.60
2019-05-03T20:18:06.542Z,9.70
2019-05-03T20:20:35.730Z,9.60
2019-05-03T20:23:05.337Z,9.60
2019-05-03T20:25:35.205Z,9.60
2019-05-03T20:28:05.083Z,9.60
2019-05-03T20:30:34.833Z,9.60
2019-05-03T20:33:04.716Z,9.60
2019-05-03T20:35:35.636Z,9.60
2019-05-03T20:38:04.818Z,9.60
2019-05-03T20:40:35.102Z,9.50
2019-05-03T20:43:26.143Z,9.50
2019-05-03T20:46:20.484Z,9.50
2019-05-03T20:48:51.951Z,9.50
2019-05-03T20:51:21.093Z,9.40
2019-05-03T20:53:50.258Z,9.40
2019-05-03T20:56:19.370Z,9.40
2019-05-03T20:58:48.534Z,9.40
2019-05-03T21:01:17.750Z,9.30
2019-05-03T21:03:46.966Z,9.30
2019-05-03T21:06:16.099Z,9.30
2019-05-03T21:08:52.973Z,9.30
2019-05-03T21:11:16.156Z,9.30
2019-05-03T21:13:45.297Z,9.30
2019-05-03T21:16:36.045Z,9.20
2019-05-03T21:19:17.836Z,9.20
2019-05-03T21:21:54.967Z,9.20
2019-05-03T21:24:48.610Z,9.20
2019-05-03T21:27:17.738Z,9.10
2019-05-03T21:29:55.231Z,9.10
2019-05-03T21:32:25.031Z,9.10
2019-05-03T21:34:55.703Z,9.10
2019-05-03T21:37:25.615Z,9.00
2019-05-03T21:39:54.963Z,9.10
2019-05-03T21:42:24.094Z,9.00
2019-05-03T21:44:55.364Z,9.00
2019-05-03T21:47:49.014Z,9.00
2019-05-03T21:50:19.887Z,9.00
2019-05-03T22:11:12.113Z,8.80
2019-05-03T22:14:45.471Z,8.70
2019-05-03T22:17:34.425Z,8.70
2019-05-03T22:20:12.043Z,8.70
2019-05-03T22:22:47.901Z,8.70
2019-05-03T22:25:19.923Z,8.60
2019-05-03T22:27:49.119Z,8.60
2019-05-03T22:30:20.458Z,8.60
2019-05-03T22:32:49.661Z,8.60
2019-05-03T22:35:18.871Z,8.60
2019-05-03T22:37:49.909Z,8.60
2019-05-03T22:40:19.013Z,8.60
2019-05-03T22:42:48.132Z,8.60
2019-05-03T22:45:19.227Z,8.50
2019-05-03T22:47:48.363Z,8.50
2019-05-03T22:50:17.505Z,8.60
2019-05-03T22:52:46.655Z,8.50
2019-05-03T22:55:15.781Z,8.50
2019-05-03T22:57:44.888Z,8.50
2019-05-03T23:00:14.751Z,8.40
2019-05-03T23:02:45.536Z,8.30
2019-05-03T23:05:14.839Z,8.30
2019-05-03T23:07:44.280Z,8.30
2019-05-03T23:10:17.266Z,8.30
2019-05-03T23:12:45.880Z,8.30
2019-05-03T23:15:15.363Z,8.30
2019-05-03T23:17:45.133Z,8.20
2019-05-03T23:20:25.520Z,8.30
2019-05-03T23:22:54.867Z,8.20
2019-05-03T23:25:24.997Z,8.20
2019-05-03T23:27:55.108Z,8.20
2019-05-03T23:30:24.966Z,8.20
2019-05-03T23:32:54.832Z,8.10
2019-05-03T23:35:24.733Z,8.10
2019-05-03T23:37:54.399Z,8.10
2019-05-03T23:40:25.403Z,8.10
2019-05-03T23:42:54.824Z,8.10
2019-05-03T23:45:25.537Z,8.10
2019-05-03T23:47:54.860Z,8.00
2019-05-03T23:50:24.900Z,8.00
2019-05-03T23:52:54.624Z,8.00
2019-05-03T23:55:41.952Z,7.90
2019-05-03T23:58:11.048Z,7.90
